KDTL/DTL METAR and TAF weather

Enter ICAO airport designator
Station Type Date Time Source
KDTL METAR 2021/03/05 18:55 UTC NOAA

KDTL 051855Z AUTO 14007KT 10SM CLR 06/M04 A3034 RMK AO2


Station Type Date Time Source
KDTL Decoded METAR 2021/03/05 18:55 UTC NOAA

Detroit Lakes, Detroit Lakes Airport-Wething Field, MN, United States (KDTL) 46-50N 095-53W
Mar 05, 2021 - 01:55 PM EST / 2021.03.05 1855 UTC
Wind: from the SE (140 degrees) at 8 MPH (7 KT):0
Visibility: 10 mile(s):0
Sky conditions: clear
Temperature: 42 F (6 C)
Dew Point: 24 F (-4 C)
Relative Humidity: 48%
Pressure (altimeter): 30.34 in. Hg (1027 hPa)
ob: KDTL 051855Z AUTO 14007KT 10SM CLR 06/M04 A3034 RMK AO2
cycle: 19

Station Type Date Time Source
KDTL TAF UTC NOAA

Error!

Example: see airport list